Авиационная погода в Симферополе

Погода METAR: 
URFF 221800Z 08004MPS 9999 BKN060 M02/M03 Q1013 R19/290194 NOSIG
Время наблюдения
2022-01-22T18:00:00Z
Температура C
-2.0
Точка росы
-3.0
Направление ветра
80
Скорость ветра (узлы)
8
Метео видимость
6.21
Облачность
BKN
Нижняя граница облачности (футы)
6000
Явления погоды
Условия полета
VFR
Аэропорт подробнее: 
BKN – значительная (рассеянная, разорванная) облачность;